WESTPORT MEDIA Westport In The Media

Enter your "Place, State", US Zip Code or ICAO:  

Palma De Mallorca / Son San Juan, Spain

 Lat: 39.55N, Lon: 2.73E
ICAO Used: LEPA
Current Conditions
Updated: 1:00 AM GMT1 SUN AUG 31 2014
Sun & Moon Information
Mostly Clear
Mostly Clear
Temp: 24°C
Humidity: 78%
Wind Speed: ENE 3 MPH
Barometer: 1017 mb
Dewpoint: 20°C
Heat Index: 24°C
Wind Chill: 24°C
Civil Twilight: 5:47 AM GMT1 Moon Phase:
Waxing Crescent Moon
Sunrise: 6:14 AM GMT1
Sunset: 7:22 PM GMT1
Civil Twilight: 7:50 PM GMT1
Forecast for Palma De Mallorca / Son San Juan, Spain:
(Forecast based on TAF for )
1100 AM GMT1 SUN AUG 31 2014
  
MORNING AFTERNOON EVENING OVERNIGHT
Fair Fair Fair Fair
ZoneCast:
Dated: 1100 AM GMT1 SUN AUG 31 2014
Morning...Becoming fair with winds from the southwest at 12 mph.

Afternoon...Fair with winds from the southwest at 12 mph.

Evening...Fair with winds from the southwest at 12 mph.

Overnight...Fair winds variable in direction at 3 mph.

Original Encoded TAF:
Dated: 1100 AM GMT1 SUN AUG 31 2014
TAF LEPA 302300Z 3100/3124 05005KT 9999 SCT025 TX31/3112Z TN21/3105Z 
     BECMG 3110/3113 23010KT 
     BECMG 3117/3120 VRB03KT